sensor_id;sensor_type;location;lat;lon;timestamp;temperature;humidity
47114;DHT22;32867;51.556;6.832;2023-03-12T00:04:11;5.20;76.00
47114;DHT22;32867;51.556;6.832;2023-03-12T00:09:12;5.10;76.20
47114;DHT22;32867;51.556;6.832;2023-03-12T00:14:13;5.00;76.60
47114;DHT22;32867;51.556;6.832;2023-03-12T00:19:13;5.10;76.50
47114;DHT22;32867;51.556;6.832;2023-03-12T00:24:14;5.00;76.40
47114;DHT22;32867;51.556;6.832;2023-03-12T00:29:16;5.00;77.00
47114;DHT22;32867;51.556;6.832;2023-03-12T00:34:17;5.00;76.60
47114;DHT22;32867;51.556;6.832;2023-03-12T00:39:17;5.10;76.30
47114;DHT22;32867;51.556;6.832;2023-03-12T00:44:18;5.10;75.80
47114;DHT22;32867;51.556;6.832;2023-03-12T00:49:19;5.00;76.20
47114;DHT22;32867;51.556;6.832;2023-03-12T00:54:20;4.90;76.10
47114;DHT22;32867;51.556;6.832;2023-03-12T00:59:21;4.90;76.20
47114;DHT22;32867;51.556;6.832;2023-03-12T01:04:22;4.90;76.50
47114;DHT22;32867;51.556;6.832;2023-03-12T01:09:22;5.00;76.60
47114;DHT22;32867;51.556;6.832;2023-03-12T01:14:25;4.90;76.50
47114;DHT22;32867;51.556;6.832;2023-03-12T01:19:26;5.00;76.60
47114;DHT22;32867;51.556;6.832;2023-03-12T01:24:26;4.90;76.50
47114;DHT22;32867;51.556;6.832;2023-03-12T01:29:27;4.90;76.60
47114;DHT22;32867;51.556;6.832;2023-03-12T01:34:28;5.00;76.30
47114;DHT22;32867;51.556;6.832;2023-03-12T01:39:30;5.10;76.00
47114;DHT22;32867;51.556;6.832;2023-03-12T01:44:51;5.10;75.80
47114;DHT22;32867;51.556;6.832;2023-03-12T01:49:53;5.10;75.60
47114;DHT22;32867;51.556;6.832;2023-03-12T01:55:08;5.10;75.20
47114;DHT22;32867;51.556;6.832;2023-03-12T02:00:24;5.00;75.20
47114;DHT22;32867;51.556;6.832;2023-03-12T02:10:43;5.00;74.90
47114;DHT22;32867;51.556;6.832;2023-03-12T02:15:44;5.00;75.10
47114;DHT22;32867;51.556;6.832;2023-03-12T02:20:52;5.00;75.20
47114;DHT22;32867;51.556;6.832;2023-03-12T02:25:56;5.00;75.60
47114;DHT22;32867;51.556;6.832;2023-03-12T02:31:02;5.10;75.30
47114;DHT22;32867;51.556;6.832;2023-03-12T02:36:04;5.10;75.40
47114;DHT22;32867;51.556;6.832;2023-03-12T02:41:22;5.00;75.80
47114;DHT22;32867;51.556;6.832;2023-03-12T02:46:24;5.10;75.70
47114;DHT22;32867;51.556;6.832;2023-03-12T02:51:24;5.00;75.60
47114;DHT22;32867;51.556;6.832;2023-03-12T02:56:27;5.00;76.20
47114;DHT22;32867;51.556;6.832;2023-03-12T03:01:28;5.00;76.20
47114;DHT22;32867;51.556;6.832;2023-03-12T03:06:29;4.90;76.40
47114;DHT22;32867;51.556;6.832;2023-03-12T03:11:30;4.90;76.90
47114;DHT22;32867;51.556;6.832;2023-03-12T03:16:34;4.80;77.10
47114;DHT22;32867;51.556;6.832;2023-03-12T03:21:35;4.90;77.20
47114;DHT22;32867;51.556;6.832;2023-03-12T03:26:35;4.90;77.10
47114;DHT22;32867;51.556;6.832;2023-03-12T03:31:36;4.80;77.70
47114;DHT22;32867;51.556;6.832;2023-03-12T03:36:37;4.90;77.60
47114;DHT22;32867;51.556;6.832;2023-03-12T03:41:43;4.90;77.80
47114;DHT22;32867;51.556;6.832;2023-03-12T03:46:46;4.80;77.90
47114;DHT22;32867;51.556;6.832;2023-03-12T03:51:47;4.80;78.10
47114;DHT22;32867;51.556;6.832;2023-03-12T03:56:54;4.90;78.10
47114;DHT22;32867;51.556;6.832;2023-03-12T04:01:55;4.90;78.30
47114;DHT22;32867;51.556;6.832;2023-03-12T04:06:56;4.80;78.70
47114;DHT22;32867;51.556;6.832;2023-03-12T04:11:57;4.80;78.80
47114;DHT22;32867;51.556;6.832;2023-03-12T04:16:58;4.80;78.90
47114;DHT22;32867;51.556;6.832;2023-03-12T04:21:59;4.90;79.10
47114;DHT22;32867;51.556;6.832;2023-03-12T04:26:59;4.90;79.00
47114;DHT22;32867;51.556;6.832;2023-03-12T04:32:00;5.00;78.80
47114;DHT22;32867;51.556;6.832;2023-03-12T04:37:01;5.00;78.80
47114;DHT22;32867;51.556;6.832;2023-03-12T04:42:02;5.00;79.10
47114;DHT22;32867;51.556;6.832;2023-03-12T04:47:04;5.00;78.90
47114;DHT22;32867;51.556;6.832;2023-03-12T04:52:06;5.00;78.90
47114;DHT22;32867;51.556;6.832;2023-03-12T04:57:07;5.00;78.90
47114;DHT22;32867;51.556;6.832;2023-03-12T05:02:07;5.00;79.10
47114;DHT22;32867;51.556;6.832;2023-03-12T05:07:08;5.00;78.80
47114;DHT22;32867;51.556;6.832;2023-03-12T05:12:09;5.00;79.40
47114;DHT22;32867;51.556;6.832;2023-03-12T05:17:10;5.10;78.60
47114;DHT22;32867;51.556;6.832;2023-03-12T05:22:11;5.10;78.90
47114;DHT22;32867;51.556;6.832;2023-03-12T05:27:12;5.10;79.20
47114;DHT22;32867;51.556;6.832;2023-03-12T05:32:14;5.00;79.30
47114;DHT22;32867;51.556;6.832;2023-03-12T05:37:15;5.20;79.30
47114;DHT22;32867;51.556;6.832;2023-03-12T05:42:16;5.10;79.80
47114;DHT22;32867;51.556;6.832;2023-03-12T05:47:17;5.20;80.30
47114;DHT22;32867;51.556;6.832;2023-03-12T05:52:18;5.10;80.90
47114;DHT22;32867;51.556;6.832;2023-03-12T05:57:19;5.00;81.50
47114;DHT22;32867;51.556;6.832;2023-03-12T06:02:20;5.10;82.10
47114;DHT22;32867;51.556;6.832;2023-03-12T06:07:21;5.00;82.90
47114;DHT22;32867;51.556;6.832;2023-03-12T06:12:22;5.10;84.30
47114;DHT22;32867;51.556;6.832;2023-03-12T06:17:23;4.90;86.20
47114;DHT22;32867;51.556;6.832;2023-03-12T06:22:24;5.00;86.60
47114;DHT22;32867;51.556;6.832;2023-03-12T06:27:26;4.90;87.80
47114;DHT22;32867;51.556;6.832;2023-03-12T06:32:26;4.90;89.30
47114;DHT22;32867;51.556;6.832;2023-03-12T06:37:27;4.90;90.10
47114;DHT22;32867;51.556;6.832;2023-03-12T06:42:27;4.90;90.40
47114;DHT22;32867;51.556;6.832;2023-03-12T06:47:28;5.00;90.50
47114;DHT22;32867;51.556;6.832;2023-03-12T06:52:29;4.90;91.40
47114;DHT22;32867;51.556;6.832;2023-03-12T06:57:29;4.80;92.10
47114;DHT22;32867;51.556;6.832;2023-03-12T07:02:30;4.80;92.80
47114;DHT22;32867;51.556;6.832;2023-03-12T07:07:30;4.80;94.10
47114;DHT22;32867;51.556;6.832;2023-03-12T07:12:34;4.50;96.80
47114;DHT22;32867;51.556;6.832;2023-03-12T07:17:35;4.70;97.80
47114;DHT22;32867;51.556;6.832;2023-03-12T07:22:36;4.70;99.90
47114;DHT22;32867;51.556;6.832;2023-03-12T07:27:37;4.90;99.90
47114;DHT22;32867;51.556;6.832;2023-03-12T07:32:37;4.60;99.90
47114;DHT22;32867;51.556;6.832;2023-03-12T07:37:38;4.70;99.90
47114;DHT22;32867;51.556;6.832;2023-03-12T07:42:39;4.70;99.90
47114;DHT22;32867;51.556;6.832;2023-03-12T07:47:40;4.70;99.90
47114;DHT22;32867;51.556;6.832;2023-03-12T07:52:40;4.80;99.90
47114;DHT22;32867;51.556;6.832;2023-03-12T07:57:41;4.90;99.90
47114;DHT22;32867;51.556;6.832;2023-03-12T08:02:42;4.90;99.90
47114;DHT22;32867;51.556;6.832;2023-03-12T08:07:43;4.90;99.90
47114;DHT22;32867;51.556;6.832;2023-03-12T08:12:43;5.00;99.90
47114;DHT22;32867;51.556;6.832;2023-03-12T08:17:44;5.20;99.90
47114;DHT22;32867;51.556;6.832;2023-03-12T08:22:44;5.00;99.90
47114;DHT22;32867;51.556;6.832;2023-03-12T08:27:45;5.20;99.90
47114;DHT22;32867;51.556;6.832;2023-03-12T08:32:46;5.10;99.90
47114;DHT22;32867;51.556;6.832;2023-03-12T08:37:47;5.10;99.90
47114;DHT22;32867;51.556;6.832;2023-03-12T08:42:47;5.00;99.90
47114;DHT22;32867;51.556;6.832;2023-03-12T08:47:48;4.90;99.90
47114;DHT22;32867;51.556;6.832;2023-03-12T08:52:49;5.00;99.90
47114;DHT22;32867;51.556;6.832;2023-03-12T08:57:50;4.90;99.90
47114;DHT22;32867;51.556;6.832;2023-03-12T09:02:50;4.90;99.90
47114;DHT22;32867;51.556;6.832;2023-03-12T09:07:52;5.00;99.90
47114;DHT22;32867;51.556;6.832;2023-03-12T09:12:53;5.10;99.90
47114;DHT22;32867;51.556;6.832;2023-03-12T09:17:54;5.10;99.90
47114;DHT22;32867;51.556;6.832;2023-03-12T09:22:55;5.10;99.90
47114;DHT22;32867;51.556;6.832;2023-03-12T09:27:55;4.90;99.90
47114;DHT22;32867;51.556;6.832;2023-03-12T09:32:56;5.00;99.90
47114;DHT22;32867;51.556;6.832;2023-03-12T09:37:58;5.00;99.90
47114;DHT22;32867;51.556;6.832;2023-03-12T09:43:13;5.10;99.90
47114;DHT22;32867;51.556;6.832;2023-03-12T09:48:18;5.00;99.90
47114;DHT22;32867;51.556;6.832;2023-03-12T09:53:31;5.10;99.90
47114;DHT22;32867;51.556;6.832;2023-03-12T09:58:36;5.30;99.90
47114;DHT22;32867;51.556;6.832;2023-03-12T10:15:12;5.40;99.90
47114;DHT22;32867;51.556;6.832;2023-03-12T10:20:40;5.60;99.90
47114;DHT22;32867;51.556;6.832;2023-03-12T10:30:59;5.70;99.90
47114;DHT22;32867;51.556;6.832;2023-03-12T10:36:00;6.00;99.90
47114;DHT22;32867;51.556;6.832;2023-03-12T10:41:15;6.00;99.90
47114;DHT22;32867;51.556;6.832;2023-03-12T10:51:22;6.20;99.90
47114;DHT22;32867;51.556;6.832;2023-03-12T10:56:22;6.30;99.90
47114;DHT22;32867;51.556;6.832;2023-03-12T11:01:26;6.40;99.90
47114;DHT22;32867;51.556;6.832;2023-03-12T11:06:28;6.60;99.90
47114;DHT22;32867;51.556;6.832;2023-03-12T11:11:31;6.70;99.90
47114;DHT22;32867;51.556;6.832;2023-03-12T11:16:32;6.70;99.90
47114;DHT22;32867;51.556;6.832;2023-03-12T11:21:35;6.90;99.90
47114;DHT22;32867;51.556;6.832;2023-03-12T11:26:46;7.10;99.90
47114;DHT22;32867;51.556;6.832;2023-03-12T11:37:06;7.50;99.90
47114;DHT22;32867;51.556;6.832;2023-03-12T11:47:39;7.70;99.90
47114;DHT22;32867;51.556;6.832;2023-03-12T11:53:14;7.90;99.90
47114;DHT22;32867;51.556;6.832;2023-03-12T12:03:38;8.20;99.90
47114;DHT22;32867;51.556;6.832;2023-03-12T12:14:24;8.50;99.90
47114;DHT22;32867;51.556;6.832;2023-03-12T12:19:55;8.70;99.90
47114;DHT22;32867;51.556;6.832;2023-03-12T12:25:11;9.00;99.90
47114;DHT22;32867;51.556;6.832;2023-03-12T12:30:33;9.10;99.90
47114;DHT22;32867;51.556;6.832;2023-03-12T12:35:38;9.30;99.90
47114;DHT22;32867;51.556;6.832;2023-03-12T12:40:42;9.40;99.90
47114;DHT22;32867;51.556;6.832;2023-03-12T12:45:47;9.50;99.90
47114;DHT22;32867;51.556;6.832;2023-03-12T12:50:50;9.60;99.90
47114;DHT22;32867;51.556;6.832;2023-03-12T12:56:00;9.60;99.90
47114;DHT22;32867;51.556;6.832;2023-03-12T13:01:02;9.70;99.90
47114;DHT22;32867;51.556;6.832;2023-03-12T13:06:05;9.80;99.90
47114;DHT22;32867;51.556;6.832;2023-03-12T13:11:23;10.00;99.90
47114;DHT22;32867;51.556;6.832;2023-03-12T13:16:37;10.20;99.90
47114;DHT22;32867;51.556;6.832;2023-03-12T13:22:03;10.60;99.90
47114;DHT22;32867;51.556;6.832;2023-03-12T13:27:27;10.90;99.90
47114;DHT22;32867;51.556;6.832;2023-03-12T13:48:02;11.40;99.90
47114;DHT22;32867;51.556;6.832;2023-03-12T13:53:07;11.60;99.90
47114;DHT22;32867;51.556;6.832;2023-03-12T13:58:17;11.60;99.90
47114;DHT22;32867;51.556;6.832;2023-03-12T14:19:17;11.70;99.90
47114;DHT22;32867;51.556;6.832;2023-03-12T14:29:44;11.90;99.90
47114;DHT22;32867;51.556;6.832;2023-03-12T14:35:02;11.90;99.90
47114;DHT22;32867;51.556;6.832;2023-03-12T14:40:19;11.90;99.90
47114;DHT22;32867;51.556;6.832;2023-03-12T14:45:21;11.90;99.90
47114;DHT22;32867;51.556;6.832;2023-03-12T14:50:27;12.00;99.90
47114;DHT22;32867;51.556;6.832;2023-03-12T14:55:28;12.10;99.90
47114;DHT22;32867;51.556;6.832;2023-03-12T15:00:29;12.20;99.90
47114;DHT22;32867;51.556;6.832;2023-03-12T15:05:30;12.20;99.90
47114;DHT22;32867;51.556;6.832;2023-03-12T15:10:38;12.30;99.90
47114;DHT22;32867;51.556;6.832;2023-03-12T15:15:46;12.30;99.90
47114;DHT22;32867;51.556;6.832;2023-03-12T15:20:48;12.30;99.90
47114;DHT22;32867;51.556;6.832;2023-03-12T15:31:15;12.10;99.90
47114;DHT22;32867;51.556;6.832;2023-03-12T15:36:23;12.00;99.90
47114;DHT22;32867;51.556;6.832;2023-03-12T15:41:35;12.00;99.90
47114;DHT22;32867;51.556;6.832;2023-03-12T15:46:44;12.00;99.90
47114;DHT22;32867;51.556;6.832;2023-03-12T15:52:02;11.90;99.90
47114;DHT22;32867;51.556;6.832;2023-03-12T15:57:18;11.90;99.90
47114;DHT22;32867;51.556;6.832;2023-03-12T16:02:34;11.90;99.90
47114;DHT22;32867;51.556;6.832;2023-03-12T16:07:36;12.00;99.90
47114;DHT22;32867;51.556;6.832;2023-03-12T16:12:37;12.00;99.90
47114;DHT22;32867;51.556;6.832;2023-03-12T16:17:37;12.00;99.90
47114;DHT22;32867;51.556;6.832;2023-03-12T16:22:39;12.10;99.90
47114;DHT22;32867;51.556;6.832;2023-03-12T16:27:50;12.10;99.90
47114;DHT22;32867;51.556;6.832;2023-03-12T16:32:51;12.10;99.90
47114;DHT22;32867;51.556;6.832;2023-03-12T16:37:51;12.00;99.90
47114;DHT22;32867;51.556;6.832;2023-03-12T16:42:53;12.00;99.90
47114;DHT22;32867;51.556;6.832;2023-03-12T16:47:58;12.00;99.90
47114;DHT22;32867;51.556;6.832;2023-03-12T16:52:59;12.00;99.90
47114;DHT22;32867;51.556;6.832;2023-03-12T16:58:01;12.00;99.90
47114;DHT22;32867;51.556;6.832;2023-03-12T17:03:04;11.90;99.90
47114;DHT22;32867;51.556;6.832;2023-03-12T17:08:05;11.90;99.90
47114;DHT22;32867;51.556;6.832;2023-03-12T17:13:09;11.90;99.90
47114;DHT22;32867;51.556;6.832;2023-03-12T17:18:11;11.90;99.90
47114;DHT22;32867;51.556;6.832;2023-03-12T17:23:12;11.70;99.90
47114;DHT22;32867;51.556;6.832;2023-03-12T17:28:13;11.70;99.90
47114;DHT22;32867;51.556;6.832;2023-03-12T17:33:16;11.70;99.90
47114;DHT22;32867;51.556;6.832;2023-03-12T17:38:17;11.70;99.90
47114;DHT22;32867;51.556;6.832;2023-03-12T17:43:18;11.70;99.90
47114;DHT22;32867;51.556;6.832;2023-03-12T17:48:19;11.60;99.90
47114;DHT22;32867;51.556;6.832;2023-03-12T17:53:23;11.70;99.90
47114;DHT22;32867;51.556;6.832;2023-03-12T17:58:24;11.70;99.90
47114;DHT22;32867;51.556;6.832;2023-03-12T18:03:24;11.80;99.90
47114;DHT22;32867;51.556;6.832;2023-03-12T18:08:25;11.70;99.90
47114;DHT22;32867;51.556;6.832;2023-03-12T18:13:26;11.60;99.90
47114;DHT22;32867;51.556;6.832;2023-03-12T18:18:27;11.70;99.90
47114;DHT22;32867;51.556;6.832;2023-03-12T18:23:28;11.70;99.90
47114;DHT22;32867;51.556;6.832;2023-03-12T18:28:29;11.70;99.90
47114;DHT22;32867;51.556;6.832;2023-03-12T18:33:29;11.70;99.90
47114;DHT22;32867;51.556;6.832;2023-03-12T18:38:31;11.70;99.90
47114;DHT22;32867;51.556;6.832;2023-03-12T18:43:32;11.70;99.90
47114;DHT22;32867;51.556;6.832;2023-03-12T18:48:33;11.60;99.90
47114;DHT22;32867;51.556;6.832;2023-03-12T18:53:34;11.70;99.90
47114;DHT22;32867;51.556;6.832;2023-03-12T18:58:35;11.80;99.90
47114;DHT22;32867;51.556;6.832;2023-03-12T19:03:35;11.90;99.90
47114;DHT22;32867;51.556;6.832;2023-03-12T19:08:36;11.80;99.90
47114;DHT22;32867;51.556;6.832;2023-03-12T19:13:37;11.90;99.90
47114;DHT22;32867;51.556;6.832;2023-03-12T19:18:38;12.00;99.90
47114;DHT22;32867;51.556;6.832;2023-03-12T19:23:39;12.00;99.90
47114;DHT22;32867;51.556;6.832;2023-03-12T19:28:40;11.80;99.90
47114;DHT22;32867;51.556;6.832;2023-03-12T19:33:41;11.80;99.90
47114;DHT22;32867;51.556;6.832;2023-03-12T19:38:42;11.90;99.90
47114;DHT22;32867;51.556;6.832;2023-03-12T19:43:43;12.00;99.90
47114;DHT22;32867;51.556;6.832;2023-03-12T19:48:43;11.90;99.90
47114;DHT22;32867;51.556;6.832;2023-03-12T19:53:44;11.90;99.90
47114;DHT22;32867;51.556;6.832;2023-03-12T19:58:45;11.90;99.90
47114;DHT22;32867;51.556;6.832;2023-03-12T20:03:45;11.90;99.90
47114;DHT22;32867;51.556;6.832;2023-03-12T20:08:46;11.90;99.90
47114;DHT22;32867;51.556;6.832;2023-03-12T20:13:48;11.90;99.90
47114;DHT22;32867;51.556;6.832;2023-03-12T20:18:49;11.80;99.90
47114;DHT22;32867;51.556;6.832;2023-03-12T20:23:50;11.90;99.90
47114;DHT22;32867;51.556;6.832;2023-03-12T20:28:50;12.00;99.90
47114;DHT22;32867;51.556;6.832;2023-03-12T20:33:51;12.00;99.90
47114;DHT22;32867;51.556;6.832;2023-03-12T20:38:52;12.00;99.90
47114;DHT22;32867;51.556;6.832;2023-03-12T20:43:54;11.90;99.90
47114;DHT22;32867;51.556;6.832;2023-03-12T20:48:56;12.00;99.90
47114;DHT22;32867;51.556;6.832;2023-03-12T20:53:57;12.10;99.90
47114;DHT22;32867;51.556;6.832;2023-03-12T20:58:58;12.00;99.90
47114;DHT22;32867;51.556;6.832;2023-03-12T21:03:58;12.00;99.90
47114;DHT22;32867;51.556;6.832;2023-03-12T21:09:00;12.00;99.90
47114;DHT22;32867;51.556;6.832;2023-03-12T21:14:00;12.00;99.90
47114;DHT22;32867;51.556;6.832;2023-03-12T21:19:01;11.90;99.90
47114;DHT22;32867;51.556;6.832;2023-03-12T21:24:02;11.70;99.90
47114;DHT22;32867;51.556;6.832;2023-03-12T21:29:03;11.60;99.90
47114;DHT22;32867;51.556;6.832;2023-03-12T21:34:03;11.80;99.90
47114;DHT22;32867;51.556;6.832;2023-03-12T21:39:04;11.70;99.90
47114;DHT22;32867;51.556;6.832;2023-03-12T21:44:05;11.50;99.90
47114;DHT22;32867;51.556;6.832;2023-03-12T21:49:06;11.50;99.90
47114;DHT22;32867;51.556;6.832;2023-03-12T21:54:06;11.50;99.90
47114;DHT22;32867;51.556;6.832;2023-03-12T21:59:07;11.50;99.90
47114;DHT22;32867;51.556;6.832;2023-03-12T22:04:08;11.50;99.90
47114;DHT22;32867;51.556;6.832;2023-03-12T22:09:08;11.50;99.90
47114;DHT22;32867;51.556;6.832;2023-03-12T22:14:09;11.40;99.90
47114;DHT22;32867;51.556;6.832;2023-03-12T22:19:10;11.50;99.90
47114;DHT22;32867;51.556;6.832;2023-03-12T22:24:12;11.60;99.90
47114;DHT22;32867;51.556;6.832;2023-03-12T22:29:12;11.60;99.90
47114;DHT22;32867;51.556;6.832;2023-03-12T22:34:14;11.50;99.90
47114;DHT22;32867;51.556;6.832;2023-03-12T22:39:17;11.60;99.90
47114;DHT22;32867;51.556;6.832;2023-03-12T22:44:18;11.60;99.90
47114;DHT22;32867;51.556;6.832;2023-03-12T22:49:18;11.60;99.90
47114;DHT22;32867;51.556;6.832;2023-03-12T22:54:19;11.50;99.90
47114;DHT22;32867;51.556;6.832;2023-03-12T22:59:20;11.50;99.90
47114;DHT22;32867;51.556;6.832;2023-03-12T23:04:20;11.50;99.90
47114;DHT22;32867;51.556;6.832;2023-03-12T23:09:21;11.60;99.90
47114;DHT22;32867;51.556;6.832;2023-03-12T23:14:22;11.50;99.90
47114;DHT22;32867;51.556;6.832;2023-03-12T23:19:22;11.50;99.90
47114;DHT22;32867;51.556;6.832;2023-03-12T23:24:23;11.60;99.90
47114;DHT22;32867;51.556;6.832;2023-03-12T23:29:24;11.60;99.90
47114;DHT22;32867;51.556;6.832;2023-03-12T23:34:25;11.40;99.90
47114;DHT22;32867;51.556;6.832;2023-03-12T23:39:28;11.40;99.90
47114;DHT22;32867;51.556;6.832;2023-03-12T23:44:29;11.40;99.90
47114;DHT22;32867;51.556;6.832;2023-03-12T23:49:30;11.50;99.90
47114;DHT22;32867;51.556;6.832;2023-03-12T23:54:30;11.50;99.90
47114;DHT22;32867;51.556;6.832;2023-03-12T23:59:31;11.50;99.90
